createdAt,value
2023-12-07T15:48:37.742Z,25.12
2023-12-07T15:49:37.928Z,26.81
2023-12-07T15:50:37.690Z,25.53
2023-12-07T15:51:37.630Z,24.75
2023-12-07T15:52:37.706Z,24.67
2023-12-07T15:53:37.667Z,24.51
2023-12-07T15:54:40.313Z,24.28
2023-12-07T15:55:37.668Z,24.29
2023-12-07T15:56:37.677Z,24.01
2023-12-07T15:57:37.650Z,23.95
2023-12-07T15:58:37.648Z,24.02
2023-12-07T15:59:37.925Z,23.83
2023-12-07T16:00:37.693Z,23.75
2023-12-07T16:01:37.735Z,23.81
2023-12-07T16:02:37.671Z,23.75
2023-12-07T16:03:37.661Z,23.73
2023-12-07T16:04:38.012Z,23.79
2023-12-07T16:05:37.779Z,23.86
2023-12-07T16:06:37.784Z,23.78
2023-12-07T16:07:37.667Z,23.84
2023-12-07T16:08:37.822Z,23.93
2023-12-07T16:09:38.311Z,23.94
2023-12-07T16:10:37.695Z,24.00
2023-12-07T16:11:37.718Z,24.02
2023-12-07T16:12:37.704Z,24.08
2023-12-07T16:13:37.672Z,24.22
2023-12-07T16:14:37.780Z,24.20
2023-12-07T16:15:37.707Z,24.08
2023-12-07T16:16:37.705Z,24.10
2023-12-07T16:17:37.821Z,24.01
2023-12-07T16:18:37.806Z,24.03
2023-12-07T16:19:37.865Z,24.12
2023-12-07T16:20:37.766Z,24.01
2023-12-07T16:21:37.714Z,23.90
2023-12-07T16:22:37.698Z,23.80
2023-12-07T16:23:37.770Z,23.76
2023-12-07T16:24:37.757Z,23.60
2023-12-07T16:25:37.712Z,23.60
2023-12-07T16:26:37.763Z,23.60
2023-12-07T16:27:37.693Z,23.50
2023-12-07T16:28:37.725Z,23.48
2023-12-07T16:29:37.755Z,23.38
2023-12-07T16:30:46.072Z,23.38
2023-12-07T16:31:38.790Z,23.23
2023-12-07T16:32:37.831Z,23.21
2023-12-07T16:33:37.854Z,23.28
2023-12-07T16:34:37.894Z,23.23
2023-12-07T16:35:37.790Z,23.16
2023-12-07T16:36:38.051Z,23.03
2023-12-07T16:37:37.761Z,23.06
2023-12-07T16:38:37.792Z,23.01
2023-12-07T16:39:37.761Z,22.94
2023-12-07T16:40:37.786Z,22.98
2023-12-07T16:41:42.066Z,22.98
2023-12-07T16:42:38.780Z,22.92
2023-12-07T16:43:37.758Z,22.98
2023-12-07T16:44:37.769Z,22.89
2023-12-07T16:45:37.777Z,22.90
2023-12-07T16:46:37.784Z,22.89
2023-12-07T16:47:37.858Z,22.86
2023-12-07T16:48:37.919Z,22.84
2023-12-07T16:49:37.919Z,22.86
2023-12-07T16:50:37.798Z,22.82
2023-12-07T16:51:40.140Z,22.85
2023-12-07T16:52:44.753Z,22.84
2023-12-07T16:53:39.080Z,22.90
2023-12-07T16:54:37.984Z,22.84
2023-12-07T16:55:37.983Z,22.84
2023-12-07T16:56:38.256Z,22.92
2023-12-07T16:57:37.960Z,22.93
2023-12-07T16:58:37.992Z,22.93
2023-12-07T16:59:38.007Z,22.94
2023-12-07T17:00:38.060Z,22.99
2023-12-07T17:01:38.022Z,23.05
2023-12-07T17:02:38.286Z,23.08
2023-12-07T17:03:39.009Z,22.99
2023-12-07T17:04:38.277Z,23.02
2023-12-07T17:05:38.278Z,23.03
2023-12-07T17:06:46.428Z,23.07
2023-12-07T17:07:39.347Z,23.07
2023-12-07T17:08:38.449Z,23.09
2023-12-07T17:09:38.405Z,23.15
2023-12-07T17:10:38.348Z,23.14
2023-12-07T17:11:38.542Z,23.12
2023-12-07T17:12:38.349Z,23.18
2023-12-07T17:13:38.329Z,23.18
2023-12-07T17:14:38.355Z,23.16
2023-12-07T17:15:38.483Z,23.18
2023-12-07T17:16:38.305Z,23.16
2023-12-07T17:17:38.455Z,23.25
2023-12-07T17:18:38.608Z,23.22
2023-12-07T17:19:45.451Z,23.24
2023-12-07T17:20:39.466Z,23.22
2023-12-07T17:21:38.372Z,23.30
2023-12-07T17:22:38.367Z,23.24
2023-12-07T17:23:38.444Z,23.31
2023-12-07T17:24:38.383Z,23.26
2023-12-07T17:25:38.344Z,23.31
2023-12-07T17:26:42.362Z,23.26
2023-12-07T17:27:39.526Z,23.31
2023-12-07T17:28:38.363Z,23.31
2023-12-07T17:29:38.409Z,23.38
2023-12-07T17:30:38.364Z,23.37
2023-12-07T17:31:38.385Z,23.35
2023-12-07T17:32:38.399Z,23.34
2023-12-07T17:33:38.490Z,23.38
2023-12-07T17:34:38.507Z,23.43
2023-12-07T17:35:38.468Z,23.39
2023-12-07T17:36:38.393Z,23.38
2023-12-07T17:37:38.409Z,23.40
2023-12-07T17:38:38.411Z,23.41
2023-12-07T17:39:38.393Z,23.44
2023-12-07T17:40:38.383Z,23.44
2023-12-07T17:41:38.496Z,23.44
2023-12-07T17:42:38.407Z,23.47
2023-12-07T17:43:38.571Z,23.45
2023-12-07T17:44:38.480Z,23.50
2023-12-07T17:45:38.428Z,23.45
2023-12-07T17:46:38.384Z,23.48
2023-12-07T17:47:38.495Z,23.48
2023-12-07T17:48:38.506Z,23.44
2023-12-07T17:49:38.444Z,23.49
2023-12-07T17:50:38.485Z,23.48
2023-12-07T17:51:38.414Z,23.51
2023-12-07T17:52:38.737Z,23.51
2023-12-07T17:53:38.456Z,23.51
2023-12-07T17:54:38.454Z,23.49
2023-12-07T17:55:38.446Z,23.50
2023-12-07T17:56:38.444Z,23.53
2023-12-07T17:57:38.469Z,23.51
2023-12-07T17:58:38.481Z,23.52
2023-12-07T17:59:38.523Z,23.56
2023-12-07T18:00:38.534Z,23.55
2023-12-07T18:01:38.531Z,23.53
2023-12-07T18:02:38.580Z,23.60
2023-12-07T18:03:38.636Z,23.53
2023-12-07T18:04:38.661Z,23.54
2023-12-07T18:05:38.757Z,23.53
2023-12-07T18:06:38.818Z,23.60
2023-12-07T18:07:38.737Z,23.57
2023-12-07T18:08:38.837Z,23.59
2023-12-07T18:09:38.801Z,23.61
2023-12-07T18:10:38.863Z,23.58
2023-12-07T18:11:38.936Z,23.57
2023-12-07T18:12:38.907Z,23.67
2023-12-07T18:13:38.937Z,23.64
2023-12-07T18:14:38.997Z,23.65
2023-12-07T18:15:38.987Z,23.65
2023-12-07T18:16:39.040Z,23.64
2023-12-07T18:17:39.203Z,23.69
2023-12-07T18:18:39.242Z,23.67
2023-12-07T18:19:39.244Z,23.67
2023-12-07T18:20:39.285Z,23.64
2023-12-07T18:21:39.274Z,23.64
2023-12-07T18:22:39.350Z,23.72
2023-12-07T18:23:39.385Z,23.68
2023-12-07T18:24:39.403Z,23.63
2023-12-07T18:25:39.486Z,23.68
2023-12-07T18:26:39.542Z,23.69
2023-12-07T18:27:39.520Z,23.68
2023-12-07T18:28:39.696Z,23.68
2023-12-07T18:29:39.667Z,23.75
2023-12-07T18:30:39.694Z,23.72
2023-12-07T18:31:39.752Z,23.76
2023-12-07T18:32:39.837Z,23.72
2023-12-07T18:33:39.886Z,23.76
2023-12-07T18:34:39.940Z,23.73
2023-12-07T18:35:40.185Z,23.76
2023-12-07T18:36:40.029Z,23.76
2023-12-07T18:37:41.572Z,23.77
2023-12-07T18:38:40.143Z,23.76
2023-12-07T18:39:40.106Z,23.80
2023-12-07T18:40:40.176Z,23.77
2023-12-07T18:41:40.268Z,23.77
2023-12-07T18:42:40.302Z,23.74
2023-12-07T18:43:40.352Z,23.79
2023-12-07T18:44:40.474Z,23.77
2023-12-07T18:45:40.433Z,23.77
2023-12-07T18:46:40.525Z,23.77
2023-12-07T18:47:40.731Z,23.74
2023-12-07T18:48:40.764Z,23.81
2023-12-07T18:49:40.736Z,23.78
2023-12-07T18:50:40.720Z,23.80
2023-12-07T18:51:40.780Z,23.77
2023-12-07T18:52:40.820Z,23.77
2023-12-07T18:53:40.906Z,23.82
2023-12-07T18:54:41.000Z,23.78
2023-12-07T18:55:41.055Z,23.79
2023-12-07T18:56:41.148Z,23.75
2023-12-07T18:57:41.171Z,23.79
2023-12-07T18:58:41.231Z,23.76
2023-12-07T18:59:41.290Z,23.84
2023-12-07T19:00:41.352Z,23.84
2023-12-07T19:01:41.392Z,23.86
2023-12-07T19:02:41.485Z,23.84
2023-12-07T19:03:41.518Z,23.81
2023-12-07T19:04:41.703Z,23.81
2023-12-07T19:05:41.744Z,23.85
2023-12-07T19:06:41.730Z,23.81
2023-12-07T19:07:41.810Z,23.82
2023-12-07T19:08:41.867Z,23.79
2023-12-07T19:09:41.915Z,23.85
2023-12-07T19:10:41.988Z,23.86
2023-12-07T19:11:42.034Z,23.83
2023-12-07T19:12:42.140Z,23.84
2023-12-07T19:13:42.187Z,23.80
2023-12-07T19:14:42.355Z,23.84
2023-12-07T19:15:42.361Z,23.87
2023-12-07T19:16:42.435Z,23.84
2023-12-07T19:17:42.569Z,23.83
2023-12-07T19:18:42.621Z,23.86
2023-12-07T19:19:42.639Z,23.91
2023-12-07T19:20:42.739Z,23.83
2023-12-07T19:21:43.132Z,23.81
2023-12-07T19:22:42.828Z,23.85
2023-12-07T19:23:42.920Z,23.88
2023-12-07T19:24:42.898Z,23.88
2023-12-07T19:25:42.943Z,23.90
2023-12-07T19:26:43.098Z,23.91
2023-12-07T19:27:43.060Z,23.88
2023-12-07T19:28:43.120Z,23.85
2023-12-07T19:29:43.213Z,23.91
2023-12-07T19:30:43.227Z,23.88
2023-12-07T19:31:43.222Z,23.88
2023-12-07T19:32:43.404Z,23.90
2023-12-07T19:33:43.473Z,23.85
2023-12-07T19:34:43.455Z,23.89
2023-12-07T19:35:43.492Z,23.94
2023-12-07T19:36:43.563Z,23.88
2023-12-07T19:37:43.549Z,23.92
2023-12-07T19:38:43.564Z,23.88
2023-12-07T19:39:43.556Z,23.92
2023-12-07T19:40:43.609Z,23.91
2023-12-07T19:41:43.637Z,23.88
2023-12-07T19:42:43.635Z,23.89
2023-12-07T19:43:43.684Z,23.92
2023-12-07T19:44:43.706Z,23.92
2023-12-07T19:45:43.703Z,23.88
2023-12-07T19:46:43.814Z,23.89
2023-12-07T19:47:44.003Z,23.93
2023-12-07T19:48:46.506Z,23.92
2023-12-07T19:49:44.072Z,23.88
2023-12-07T19:50:44.262Z,23.95
2023-12-07T19:51:43.949Z,23.90
2023-12-07T19:52:43.962Z,23.92
2023-12-07T19:53:43.964Z,23.90
2023-12-07T19:54:43.898Z,23.92
2023-12-07T19:55:43.920Z,23.92
2023-12-07T19:56:43.932Z,23.93
2023-12-07T19:57:43.990Z,23.92
2023-12-07T19:58:43.916Z,23.90
2023-12-07T19:59:44.006Z,23.96
2023-12-07T20:00:44.073Z,24.00
2023-12-07T20:01:43.987Z,23.97
2023-12-07T20:02:43.963Z,23.93
2023-12-07T20:03:43.983Z,23.96
2023-12-07T20:04:44.019Z,23.98
2023-12-07T20:05:43.964Z,23.99
2023-12-07T20:06:44.049Z,23.98
2023-12-07T20:07:43.958Z,24.04
2023-12-07T20:08:44.010Z,24.01
2023-12-07T20:09:43.932Z,24.04
2023-12-07T20:10:44.008Z,24.04
2023-12-07T20:11:44.102Z,24.07
2023-12-07T20:12:43.964Z,24.00
2023-12-07T20:13:43.968Z,24.07
2023-12-07T20:14:43.991Z,24.05
2023-12-07T20:15:43.976Z,24.02
2023-12-07T20:16:43.956Z,24.06
2023-12-07T20:17:44.224Z,24.12
2023-12-07T20:18:44.052Z,24.11
2023-12-07T20:19:44.017Z,24.13
2023-12-07T20:20:43.988Z,24.12
2023-12-07T20:21:43.978Z,24.11
2023-12-07T20:22:43.961Z,24.12
2023-12-07T20:23:44.078Z,24.11
2023-12-07T20:24:43.980Z,24.13
2023-12-07T20:25:44.004Z,24.06
2023-12-07T20:26:44.041Z,24.08
2023-12-07T20:27:43.959Z,24.09
2023-12-07T20:28:44.002Z,24.08
2023-12-07T20:29:44.008Z,24.05
2023-12-07T20:30:43.984Z,24.08
2023-12-07T20:31:44.013Z,24.08
2023-12-07T20:32:44.114Z,24.05
2023-12-07T20:33:44.033Z,24.09
2023-12-07T20:34:44.025Z,24.08
2023-12-07T20:35:44.031Z,24.05
2023-12-07T20:36:43.979Z,24.09
2023-12-07T20:37:44.020Z,24.06
2023-12-07T20:38:44.060Z,24.05
2023-12-07T20:39:43.995Z,24.06
2023-12-07T20:40:44.027Z,24.08
2023-12-07T20:41:44.055Z,24.09
2023-12-07T20:42:43.992Z,24.10
2023-12-07T20:43:43.992Z,24.04
2023-12-07T20:44:44.004Z,24.10
2023-12-07T20:45:44.036Z,24.07
2023-12-07T20:46:44.024Z,24.04
2023-12-07T20:47:44.223Z,24.09
2023-12-07T20:48:44.087Z,24.08
2023-12-07T20:49:43.996Z,24.14
2023-12-07T20:50:44.056Z,24.03
2023-12-07T20:51:44.008Z,24.10
2023-12-07T20:52:44.026Z,24.08
2023-12-07T20:53:44.034Z,24.10
2023-12-07T20:54:44.871Z,24.10
2023-12-07T20:55:44.012Z,24.07
2023-12-07T20:56:44.451Z,24.05
2023-12-07T20:57:44.019Z,24.08
2023-12-07T20:58:44.001Z,24.08
2023-12-07T20:59:44.045Z,24.05
2023-12-07T21:00:44.060Z,24.10
2023-12-07T21:01:44.048Z,24.11
2023-12-07T21:02:44.050Z,24.05
2023-12-07T21:03:44.125Z,24.05
2023-12-07T21:04:44.034Z,24.12
2023-12-07T21:05:44.137Z,24.05
2023-12-07T21:06:44.046Z,24.07
2023-12-07T21:07:44.033Z,24.08
2023-12-07T21:08:44.136Z,24.04
2023-12-07T21:09:43.996Z,24.05
2023-12-07T21:10:44.039Z,24.08
2023-12-07T21:11:44.100Z,24.11
2023-12-07T21:12:44.029Z,24.11
2023-12-07T21:13:44.064Z,24.11
2023-12-07T21:14:44.113Z,24.11
2023-12-07T21:15:44.037Z,24.11
2023-12-07T21:16:44.040Z,24.08
2023-12-07T21:17:44.102Z,24.11
2023-12-07T21:18:44.150Z,24.12
2023-12-07T21:19:44.055Z,24.12
2023-12-07T21:20:44.151Z,24.10
2023-12-07T21:21:44.053Z,24.17
2023-12-07T21:22:44.046Z,24.09
2023-12-07T21:23:44.069Z,24.10
2023-12-07T21:24:44.110Z,24.13
2023-12-07T21:25:44.109Z,24.09
2023-12-07T21:26:44.162Z,24.13
2023-12-07T21:27:44.398Z,24.09
2023-12-07T21:28:44.200Z,24.12
2023-12-07T21:29:44.237Z,24.16
2023-12-07T21:30:44.331Z,24.13
2023-12-07T21:31:44.243Z,24.14
2023-12-07T21:32:44.396Z,24.11
2023-12-07T21:33:44.493Z,24.13
2023-12-07T21:34:44.345Z,24.11
2023-12-07T21:35:44.424Z,24.16
2023-12-07T21:36:44.419Z,24.11
2023-12-07T21:37:44.434Z,24.13
2023-12-07T21:38:44.460Z,24.14
2023-12-07T21:39:44.478Z,24.16
2023-12-07T21:40:44.486Z,24.11
2023-12-07T21:41:44.577Z,24.08
2023-12-07T21:42:44.589Z,24.13
2023-12-07T21:43:44.586Z,24.15
2023-12-07T21:44:44.676Z,24.14
2023-12-07T21:45:44.639Z,24.14
2023-12-07T21:46:44.828Z,24.14
2023-12-07T21:47:44.996Z,24.13
2023-12-07T21:48:44.942Z,24.18
2023-12-07T21:49:44.875Z,24.10
2023-12-07T21:50:44.939Z,24.18
2023-12-07T21:51:44.839Z,24.17
2023-12-07T21:52:44.909Z,24.14
2023-12-07T21:53:44.986Z,24.13
2023-12-07T21:54:44.952Z,24.18
2023-12-07T21:55:44.998Z,24.19
2023-12-07T21:56:45.082Z,24.18
2023-12-07T21:57:45.035Z,24.21
2023-12-07T21:58:45.077Z,24.21
2023-12-07T21:59:45.102Z,24.22
2023-12-07T22:00:45.179Z,24.22
2023-12-07T22:01:45.203Z,24.27
2023-12-07T22:02:45.213Z,24.24
2023-12-07T22:03:45.301Z,24.28
2023-12-07T22:04:45.326Z,24.28
2023-12-07T22:05:45.401Z,24.29
2023-12-07T22:06:45.413Z,24.22
2023-12-07T22:07:45.411Z,24.26
2023-12-07T22:08:45.442Z,24.29
2023-12-07T22:09:45.508Z,24.29
2023-12-07T22:10:45.535Z,24.30
2023-12-07T22:11:45.709Z,24.31
2023-12-07T22:12:45.651Z,24.26
2023-12-07T22:13:45.650Z,24.33
2023-12-07T22:14:45.708Z,24.34
2023-12-07T22:15:45.739Z,24.34
2023-12-07T22:16:45.796Z,24.36
2023-12-07T22:17:45.944Z,24.35
2023-12-07T22:18:46.071Z,24.40
2023-12-07T22:19:45.950Z,24.35
2023-12-07T22:20:45.962Z,24.37
2023-12-07T22:21:46.010Z,24.34
2023-12-07T22:22:45.994Z,24.38
2023-12-07T22:23:46.094Z,24.34
2023-12-07T22:24:46.108Z,24.40
2023-12-07T22:25:46.149Z,24.40
2023-12-07T22:26:46.233Z,24.37
2023-12-07T22:27:46.257Z,24.39
2023-12-07T22:28:46.306Z,24.43
2023-12-07T22:29:46.337Z,24.42
2023-12-07T22:30:46.402Z,24.41
2023-12-07T22:31:46.419Z,24.39
2023-12-07T22:32:46.861Z,24.44
2023-12-07T22:34:00.027Z,24.49
2023-12-07T22:34:47.675Z,24.42
2023-12-07T22:35:46.667Z,24.44
2023-12-07T22:36:46.552Z,24.44
2023-12-07T22:37:46.577Z,24.42
2023-12-07T22:38:46.580Z,24.45
2023-12-07T22:39:46.545Z,24.49
2023-12-07T22:40:46.580Z,24.44
2023-12-07T22:41:46.645Z,24.49
2023-12-07T22:42:46.568Z,24.49
2023-12-07T22:43:46.534Z,24.48
2023-12-07T22:44:46.589Z,24.48
2023-12-07T22:45:46.587Z,24.46
2023-12-07T22:46:46.632Z,24.52
2023-12-07T22:47:46.975Z,24.55
2023-12-07T22:48:46.829Z,24.50
2023-12-07T22:49:46.858Z,24.55
2023-12-07T22:50:46.828Z,24.54
2023-12-07T22:51:46.897Z,24.54
2023-12-07T22:52:46.944Z,24.51
2023-12-07T22:53:47.070Z,24.54
2023-12-07T22:54:47.052Z,24.59
2023-12-07T22:55:47.088Z,24.52
2023-12-07T22:56:47.192Z,24.54
2023-12-07T22:57:47.222Z,24.53
2023-12-07T22:58:47.333Z,24.57
2023-12-07T22:59:47.338Z,24.56
2023-12-07T23:00:47.503Z,24.53
2023-12-07T23:01:47.388Z,24.56
2023-12-07T23:02:47.487Z,24.61
2023-12-07T23:03:47.450Z,24.51
2023-12-07T23:04:47.577Z,24.61
2023-12-07T23:05:47.632Z,24.60
2023-12-07T23:06:47.668Z,24.58
2023-12-07T23:07:47.659Z,24.57
2023-12-07T23:08:47.734Z,24.58
2023-12-07T23:09:47.737Z,24.58
2023-12-07T23:10:47.805Z,24.60
2023-12-07T23:11:47.851Z,24.61
2023-12-07T23:12:47.914Z,24.61
2023-12-07T23:13:47.931Z,24.65
2023-12-07T23:14:48.023Z,24.60
2023-12-07T23:15:48.063Z,24.60
2023-12-07T23:16:48.145Z,24.64
2023-12-07T23:17:48.352Z,24.64
2023-12-07T23:18:48.366Z,24.62
2023-12-07T23:19:48.336Z,24.62
2023-12-07T23:20:48.397Z,24.65
2023-12-07T23:21:48.497Z,24.65
2023-12-07T23:22:48.558Z,24.61
2023-12-07T23:23:48.664Z,24.71
2023-12-07T23:24:48.635Z,24.65
2023-12-07T23:25:48.706Z,24.71
2023-12-07T23:26:48.789Z,24.65
2023-12-07T23:27:48.910Z,24.66
2023-12-07T23:28:48.958Z,24.67
2023-12-07T23:29:54.401Z,24.66
2023-12-07T23:30:49.999Z,24.65
2023-12-07T23:31:48.988Z,24.69
2023-12-07T23:32:49.242Z,24.69
2023-12-07T23:33:49.253Z,24.67
2023-12-07T23:34:49.068Z,24.69
2023-12-07T23:35:49.032Z,24.71
2023-12-07T23:36:48.967Z,24.71
2023-12-07T23:37:48.979Z,24.73
2023-12-07T23:38:49.128Z,24.77
2023-12-07T23:39:49.203Z,24.72
2023-12-07T23:40:49.161Z,24.72
2023-12-07T23:41:49.332Z,24.72
2023-12-07T23:42:49.326Z,24.71
2023-12-07T23:43:49.449Z,24.76
2023-12-07T23:44:49.589Z,24.71
2023-12-07T23:45:49.573Z,24.74
2023-12-07T23:46:49.644Z,24.73
2023-12-07T23:47:49.761Z,24.76
2023-12-07T23:48:49.891Z,24.74
2023-12-07T23:49:49.893Z,24.73
2023-12-07T23:50:49.873Z,24.74
2023-12-07T23:51:49.917Z,24.77
2023-12-07T23:52:49.946Z,24.76
2023-12-07T23:53:50.097Z,24.74
2023-12-07T23:54:50.051Z,24.78
2023-12-07T23:55:50.132Z,24.78
2023-12-07T23:56:50.188Z,24.81
2023-12-07T23:57:50.213Z,24.81
2023-12-07T23:58:50.290Z,24.76
2023-12-07T23:59:50.303Z,24.81
